createdAt,value
2024-05-09T00:00:06.366Z,86946.59
2024-05-09T00:00:48.682Z,86957.88
2024-05-09T00:01:28.547Z,86951.41
2024-05-09T00:02:08.544Z,86938.47
2024-05-09T00:02:48.576Z,86947.69
2024-05-09T00:03:28.423Z,86955.50
2024-05-09T00:04:08.520Z,86953.50
2024-05-09T00:04:48.433Z,86949.78
2024-05-09T00:05:28.449Z,86949.06
2024-05-09T00:06:11.161Z,86944.13
2024-05-09T00:06:50.942Z,86948.34
2024-05-09T00:07:30.794Z,86948.34
2024-05-09T00:08:12.201Z,86945.84
2024-05-09T00:08:52.318Z,86950.63
2024-05-09T00:09:32.039Z,86951.25
2024-05-09T00:10:18.319Z,86949.91
2024-05-09T00:11:05.915Z,86951.88
2024-05-09T00:11:45.903Z,86952.16
2024-05-09T00:12:25.783Z,86948.63
2024-05-09T00:13:06.556Z,86948.63
2024-05-09T00:13:47.195Z,86947.03
2024-05-09T00:14:26.982Z,86952.69
2024-05-09T00:15:07.264Z,86946.81
2024-05-09T00:15:47.158Z,86950.06
2024-05-09T00:16:27.561Z,86952.41
2024-05-09T00:17:07.524Z,86949.06
2024-05-09T00:17:47.550Z,86948.81
2024-05-09T00:18:27.746Z,86946.50
2024-05-09T00:19:08.150Z,86951.53
2024-05-09T00:19:47.998Z,86944.59
2024-05-09T00:20:37.087Z,86949.31
2024-05-09T00:21:19.993Z,86939.03
2024-05-09T00:22:00.288Z,86944.69
2024-05-09T00:22:40.015Z,86946.06
2024-05-09T00:23:19.906Z,86943.63
2024-05-09T00:23:59.820Z,86940.13
2024-05-09T00:24:39.916Z,86943.72
2024-05-09T00:25:19.757Z,86945.25
2024-05-09T00:25:59.601Z,86944.34
2024-05-09T00:26:39.469Z,86944.94
2024-05-09T00:27:19.604Z,86944.22
2024-05-09T00:27:59.391Z,86939.91
2024-05-09T00:28:39.279Z,86945.91
2024-05-09T00:29:19.137Z,86948.69
2024-05-09T00:29:59.072Z,86945.06
2024-05-09T00:30:38.985Z,86948.09
2024-05-09T00:31:18.829Z,86947.41
2024-05-09T00:31:58.679Z,86950.44
2024-05-09T00:32:39.031Z,86946.22
2024-05-09T00:33:19.099Z,86944.41
2024-05-09T00:33:59.354Z,86941.34
2024-05-09T00:34:39.287Z,86941.44
2024-05-09T00:35:20.054Z,86947.16
2024-05-09T00:35:59.787Z,86942.47
2024-05-09T00:36:39.559Z,86944.22
2024-05-09T00:37:19.459Z,86949.44
2024-05-09T00:37:59.668Z,86944.22
2024-05-09T00:38:39.611Z,86942.75
2024-05-09T00:39:19.332Z,86946.41
2024-05-09T00:39:59.078Z,86948.19
2024-05-09T00:40:42.627Z,86948.81
2024-05-09T00:41:23.414Z,86949.63
2024-05-09T00:42:03.209Z,86948.97
2024-05-09T00:42:43.040Z,86946.22
2024-05-09T00:43:23.052Z,86948.41
2024-05-09T00:44:03.501Z,86950.88
2024-05-09T00:44:43.351Z,86949.69
2024-05-09T00:45:23.120Z,86946.81
2024-05-09T00:46:03.363Z,86942.47
2024-05-09T00:46:43.225Z,86941.22
2024-05-09T00:47:25.101Z,86940.31
2024-05-09T00:48:08.667Z,86939.19
2024-05-09T00:48:50.186Z,86932.69
2024-05-09T00:49:30.468Z,86939.00
2024-05-09T00:50:15.995Z,86940.69
2024-05-09T00:51:03.299Z,86944.56
2024-05-09T00:51:44.220Z,86937.38
2024-05-09T00:52:24.014Z,86932.34
2024-05-09T00:53:04.051Z,86937.56
2024-05-09T00:53:44.221Z,86937.16
2024-05-09T00:54:25.342Z,86933.16
2024-05-09T00:55:05.158Z,86925.28
2024-05-09T00:55:45.834Z,86931.28
2024-05-09T00:56:26.389Z,86929.38
2024-05-09T00:57:07.030Z,86930.56
2024-05-09T00:57:46.889Z,86927.06
2024-05-09T00:58:29.383Z,86930.44
2024-05-09T00:59:09.887Z,86930.72
2024-05-09T00:59:50.654Z,86926.75
2024-05-09T01:01:18.631Z,86935.88
2024-05-09T01:01:59.589Z,86938.03
2024-05-09T01:02:40.329Z,86938.50
2024-05-09T01:03:20.443Z,86931.63
2024-05-09T01:04:01.623Z,86930.59
2024-05-09T01:04:41.543Z,86931.03
2024-05-09T01:05:21.429Z,86935.41
2024-05-09T01:06:01.175Z,86929.22
2024-05-09T01:06:41.001Z,86932.31
2024-05-09T01:07:20.903Z,86928.03
2024-05-09T01:08:01.349Z,86929.03
2024-05-09T01:08:41.165Z,86926.22
2024-05-09T01:09:20.908Z,86936.31
2024-05-09T01:10:00.693Z,86928.91
2024-05-09T01:10:44.164Z,86931.81
2024-05-09T01:11:25.788Z,86929.97
2024-05-09T01:12:05.932Z,86927.41
2024-05-09T01:12:45.783Z,86934.59
2024-05-09T01:13:25.918Z,86923.00
2024-05-09T01:14:05.895Z,86921.88
2024-05-09T01:14:45.861Z,86919.38
2024-05-09T01:15:25.627Z,86934.69
2024-05-09T01:16:06.649Z,86926.41
2024-05-09T01:16:46.634Z,86924.72
2024-05-09T01:17:27.062Z,86925.91
2024-05-09T01:18:12.365Z,86920.28
2024-05-09T01:18:53.646Z,86923.81
2024-05-09T01:19:33.668Z,86922.28
2024-05-09T01:20:20.000Z,86925.28
2024-05-09T01:21:10.387Z,86920.72
2024-05-09T01:21:50.587Z,86922.69
2024-05-09T01:22:32.216Z,86920.00
2024-05-09T01:23:12.572Z,86920.00
2024-05-09T01:23:53.444Z,86922.03
2024-05-09T01:24:33.286Z,86919.81
2024-05-09T01:25:13.050Z,86916.00
2024-05-09T01:25:52.757Z,86915.22
2024-05-09T01:26:32.538Z,86918.41
2024-05-09T01:27:12.522Z,86919.81
2024-05-09T01:27:52.246Z,86905.84
2024-05-09T01:28:31.956Z,86916.00
2024-05-09T01:29:11.752Z,86916.59
2024-05-09T01:29:51.956Z,86903.09
2024-05-09T01:30:35.287Z,86902.44
2024-05-09T01:31:17.093Z,86909.13
2024-05-09T01:32:00.054Z,86906.34
2024-05-09T01:32:40.288Z,86906.03
2024-05-09T01:33:20.453Z,86906.59
2024-05-09T01:34:00.600Z,86900.72
2024-05-09T01:34:40.402Z,86907.16
2024-05-09T01:35:24.628Z,86900.72
2024-05-09T01:36:04.494Z,86902.84
2024-05-09T01:36:44.207Z,86907.44
2024-05-09T01:37:23.971Z,86906.78
2024-05-09T01:38:04.452Z,86904.91
2024-05-09T01:38:44.293Z,86906.03
2024-05-09T01:39:24.696Z,86909.53
2024-05-09T01:40:07.434Z,86907.44
2024-05-09T01:40:50.540Z,86907.84
2024-05-09T01:41:30.376Z,86904.16
2024-05-09T01:42:10.115Z,86906.84
2024-05-09T01:42:49.864Z,86896.84
2024-05-09T01:43:30.265Z,86903.00
2024-05-09T01:44:10.165Z,86897.56
2024-05-09T01:44:49.942Z,86907.34
2024-05-09T01:45:29.963Z,86906.72
2024-05-09T01:46:17.933Z,86906.03
2024-05-09T01:46:57.673Z,86898.03
2024-05-09T01:47:37.807Z,86908.31
2024-05-09T01:48:17.842Z,86904.13
2024-05-09T01:48:58.580Z,86905.97
2024-05-09T01:49:39.453Z,86902.16
2024-05-09T01:50:28.934Z,86897.66
2024-05-09T01:51:16.477Z,86902.66
2024-05-09T01:51:56.733Z,86907.44
2024-05-09T01:52:39.683Z,86898.81
2024-05-09T01:53:19.591Z,86898.56
2024-05-09T01:53:59.370Z,86907.53
2024-05-09T01:54:39.223Z,86901.34
2024-05-09T01:55:19.005Z,86900.16
2024-05-09T01:55:58.806Z,86904.47
2024-05-09T01:56:38.631Z,86896.44
2024-05-09T01:57:18.979Z,86900.44
2024-05-09T01:57:58.827Z,86902.13
2024-05-09T01:58:39.666Z,86910.94
2024-05-09T01:59:19.488Z,86899.53
2024-05-09T02:00:00.054Z,86899.13
2024-05-09T02:00:42.784Z,86903.53
2024-05-09T02:01:23.351Z,86899.13
2024-05-09T02:02:03.266Z,86905.44
2024-05-09T02:02:46.751Z,86902.06
2024-05-09T02:03:26.748Z,86897.25
2024-05-09T02:04:06.978Z,86896.72
2024-05-09T02:04:51.394Z,86899.03
2024-05-09T02:05:31.705Z,86898.06
2024-05-09T02:06:11.665Z,86898.44
2024-05-09T02:06:51.461Z,86903.84
2024-05-09T02:07:31.340Z,86894.75
2024-05-09T02:08:19.341Z,86895.75
2024-05-09T02:08:59.401Z,86902.13
2024-05-09T02:09:39.175Z,86906.84
2024-05-09T02:10:26.015Z,86896.44
2024-05-09T02:11:11.900Z,86900.94
2024-05-09T02:11:52.240Z,86894.53
2024-05-09T02:12:32.668Z,86898.44
2024-05-09T02:13:12.706Z,86898.34
2024-05-09T02:13:52.802Z,86897.47
2024-05-09T02:14:32.626Z,86894.38
2024-05-09T02:15:12.381Z,86903.44
2024-05-09T02:15:53.200Z,86897.06
2024-05-09T02:16:33.380Z,86887.94
2024-05-09T02:17:13.287Z,86889.47
2024-05-09T02:17:53.401Z,86895.13
2024-05-09T02:18:33.390Z,86893.84
2024-05-09T02:19:13.467Z,86888.53
2024-05-09T02:19:53.360Z,86885.44
2024-05-09T02:20:36.433Z,86887.13
2024-05-09T02:21:17.499Z,86889.13
2024-05-09T02:21:57.672Z,86878.47
2024-05-09T02:22:37.372Z,86897.97
2024-05-09T02:23:17.264Z,86898.44
2024-05-09T02:23:57.080Z,86896.34
2024-05-09T02:24:37.181Z,86894.84
2024-05-09T02:25:16.970Z,86893.03
2024-05-09T02:25:56.967Z,86890.34
2024-05-09T02:26:36.721Z,86891.25
2024-05-09T02:27:16.953Z,86894.13
2024-05-09T02:27:56.706Z,86895.06
2024-05-09T02:28:36.440Z,86904.66
2024-05-09T02:29:16.245Z,86896.66
2024-05-09T02:29:56.568Z,86897.53
2024-05-09T02:30:40.597Z,86901.94
2024-05-09T02:31:21.895Z,86907.16
2024-05-09T02:32:01.668Z,86902.94
2024-05-09T02:32:41.960Z,86901.44
2024-05-09T02:33:22.158Z,86901.44
2024-05-09T02:34:02.437Z,86901.63
2024-05-09T02:34:42.313Z,86898.81
2024-05-09T02:35:22.394Z,86906.19
2024-05-09T02:36:02.225Z,86905.63
2024-05-09T02:36:41.982Z,86908.44
2024-05-09T02:37:21.676Z,86906.53
2024-05-09T02:38:02.020Z,86909.59
2024-05-09T02:38:42.039Z,86909.53
2024-05-09T02:39:21.872Z,86904.91
2024-05-09T02:40:01.661Z,86908.53
2024-05-09T02:40:41.916Z,86906.47
2024-05-09T02:41:21.727Z,86904.53
2024-05-09T02:42:01.477Z,86913.69
2024-05-09T02:42:42.280Z,86909.53
2024-05-09T02:43:22.167Z,86909.03
2024-05-09T02:44:01.942Z,86908.53
2024-05-09T02:44:41.736Z,86912.63
2024-05-09T02:45:21.467Z,86914.91
2024-05-09T02:46:01.752Z,86915.63
2024-05-09T02:46:41.483Z,86911.66
2024-05-09T02:47:21.578Z,86915.81
2024-05-09T02:48:02.199Z,86913.34
2024-05-09T02:48:42.741Z,86916.53
2024-05-09T02:49:22.672Z,86916.03
2024-05-09T02:50:03.050Z,86918.63
2024-05-09T02:50:45.216Z,86919.44
2024-05-09T02:51:25.152Z,86914.94
2024-05-09T02:52:04.938Z,86923.84
2024-05-09T02:52:44.749Z,86914.94
2024-05-09T02:53:24.737Z,86910.81
2024-05-09T02:54:04.691Z,86917.13
2024-05-09T02:54:44.412Z,86917.13
2024-05-09T02:55:24.345Z,86919.63
2024-05-09T02:56:04.106Z,86918.03
2024-05-09T02:56:44.191Z,86914.34
2024-05-09T02:57:23.962Z,86919.22
2024-05-09T02:58:03.762Z,86920.19
2024-05-09T02:58:43.571Z,86922.91
2024-05-09T02:59:23.992Z,86918.13
2024-05-09T03:00:06.206Z,86920.22
2024-05-09T03:00:47.542Z,86922.50
2024-05-09T03:01:27.329Z,86918.91
2024-05-09T03:02:07.398Z,86918.31
2024-05-09T03:02:47.242Z,86918.31
2024-05-09T03:03:27.497Z,86918.84
2024-05-09T03:04:07.759Z,86914.63
2024-05-09T03:04:47.974Z,86917.72
2024-05-09T03:05:27.888Z,86920.63
2024-05-09T03:06:07.746Z,86919.44
2024-05-09T03:06:47.519Z,86919.03
2024-05-09T03:07:27.525Z,86911.66
2024-05-09T03:08:07.825Z,86924.72
2024-05-09T03:08:49.895Z,86917.81
2024-05-09T03:09:30.055Z,86923.72
2024-05-09T03:10:18.275Z,86915.81
2024-05-09T03:11:02.183Z,86926.22
2024-05-09T03:11:42.091Z,86923.22
2024-05-09T03:12:21.921Z,86919.63
2024-05-09T03:13:02.025Z,86918.91
2024-05-09T03:13:43.641Z,86923.22
2024-05-09T03:14:23.821Z,86914.44
2024-05-09T03:15:03.767Z,86924.41
2024-05-09T03:15:44.706Z,86920.00
2024-05-09T03:16:24.695Z,86914.81
2024-05-09T03:17:04.600Z,86920.25
2024-05-09T03:17:44.639Z,86918.03
2024-05-09T03:18:25.245Z,86921.34
2024-05-09T03:19:05.107Z,86917.63
2024-05-09T03:19:44.909Z,86924.47
2024-05-09T03:20:32.252Z,86917.94
2024-05-09T03:21:14.454Z,86917.28
2024-05-09T03:21:55.463Z,86918.84
2024-05-09T03:22:35.269Z,86918.38
2024-05-09T03:23:15.216Z,86919.22
2024-05-09T03:23:55.543Z,86921.09
2024-05-09T03:24:35.434Z,86919.53
2024-05-09T03:25:15.288Z,86923.31
2024-05-09T03:25:55.196Z,86916.94
2024-05-09T03:26:35.727Z,86917.63
2024-05-09T03:27:15.570Z,86926.31
2024-05-09T03:27:55.844Z,86926.72
2024-05-09T03:28:35.610Z,86919.63
2024-05-09T03:29:15.657Z,86919.31
2024-05-09T03:29:55.458Z,86927.22
2024-05-09T03:30:40.670Z,86920.69
2024-05-09T03:31:22.616Z,86926.53
2024-05-09T03:32:02.767Z,86926.25
2024-05-09T03:32:45.036Z,86923.97
2024-05-09T03:33:25.006Z,86926.28
2024-05-09T03:34:05.248Z,86924.50
2024-05-09T03:34:45.257Z,86929.16
2024-05-09T03:35:25.273Z,86924.63
2024-05-09T03:36:09.108Z,86927.75
2024-05-09T03:36:50.400Z,86930.72
2024-05-09T03:37:30.409Z,86931.56
2024-05-09T03:38:10.223Z,86936.22
2024-05-09T03:38:51.819Z,86929.47
2024-05-09T03:39:31.629Z,86933.91
2024-05-09T03:40:17.731Z,86926.41
2024-05-09T03:41:00.783Z,86925.91
2024-05-09T03:41:40.699Z,86931.16
2024-05-09T03:42:20.435Z,86929.88
2024-05-09T03:43:00.467Z,86933.19
2024-05-09T03:43:40.164Z,86936.69
2024-05-09T03:44:20.428Z,86937.91
2024-05-09T03:45:00.368Z,86935.78
2024-05-09T03:45:40.677Z,86938.47
2024-05-09T03:46:20.496Z,86938.25
2024-05-09T03:47:00.241Z,86941.28
2024-05-09T03:47:40.249Z,86936.06
2024-05-09T03:48:21.635Z,86940.47
2024-05-09T03:49:01.624Z,86936.78
2024-05-09T03:49:41.673Z,86944.25
2024-05-09T03:50:30.020Z,86938.47
2024-05-09T03:51:13.921Z,86942.47
2024-05-09T03:51:53.712Z,86941.38
2024-05-09T03:52:33.582Z,86948.94
2024-05-09T03:53:14.966Z,86943.81
2024-05-09T03:53:55.132Z,86946.16
2024-05-09T03:54:37.562Z,86950.47
2024-05-09T03:55:18.081Z,86946.97
2024-05-09T03:55:58.291Z,86954.47
2024-05-09T03:56:38.907Z,86948.06
2024-05-09T03:57:18.704Z,86945.88
2024-05-09T03:57:58.670Z,86953.56
2024-05-09T03:58:38.652Z,86949.38
2024-05-09T03:59:19.382Z,86953.06
2024-05-09T03:59:59.167Z,86951.47
2024-05-09T04:00:40.238Z,86942.75
2024-05-09T04:01:20.301Z,86947.56
2024-05-09T04:02:00.557Z,86935.19
2024-05-09T04:02:44.517Z,86944.97
2024-05-09T04:03:24.586Z,86946.56
2024-05-09T04:04:05.228Z,86953.56
2024-05-09T04:04:46.020Z,86942.47
2024-05-09T04:05:27.291Z,86949.66
2024-05-09T04:06:07.767Z,86949.06
2024-05-09T04:06:48.250Z,86955.16
2024-05-09T04:07:28.062Z,86948.56
2024-05-09T04:08:08.169Z,86945.78
2024-05-09T04:08:48.047Z,86955.41
2024-05-09T04:09:27.829Z,86953.94
2024-05-09T04:10:16.985Z,86946.06
2024-05-09T04:11:03.606Z,86958.25
2024-05-09T04:11:43.693Z,86954.53
2024-05-09T04:12:23.562Z,86951.03
2024-05-09T04:13:04.611Z,86956.16
2024-05-09T04:13:44.421Z,86959.06
2024-05-09T04:14:24.587Z,86957.38
2024-05-09T04:15:04.973Z,86948.97
2024-05-09T04:15:44.983Z,86956.84
2024-05-09T04:16:25.138Z,86961.25
2024-05-09T04:17:05.027Z,86958.81
2024-05-09T04:17:51.980Z,86962.00
2024-05-09T04:18:32.026Z,86960.22
2024-05-09T04:19:11.948Z,86962.63
2024-05-09T04:19:51.809Z,86958.47
2024-05-09T04:20:38.203Z,86959.00
2024-05-09T04:21:20.440Z,86960.84
2024-05-09T04:22:00.915Z,86960.75
2024-05-09T04:22:40.865Z,86961.44
2024-05-09T04:23:20.779Z,86963.44
2024-05-09T04:24:00.822Z,86970.22
2024-05-09T04:24:40.530Z,86967.41
2024-05-09T04:25:20.311Z,86969.84
2024-05-09T04:26:05.190Z,86965.91
2024-05-09T04:26:45.318Z,86963.22
2024-05-09T04:27:25.103Z,86970.00
2024-05-09T04:28:05.085Z,86966.22
2024-05-09T04:28:44.969Z,86964.91
2024-05-09T04:29:25.042Z,86965.81
2024-05-09T04:30:07.874Z,86966.13
2024-05-09T04:30:49.719Z,86964.97
2024-05-09T04:31:30.413Z,86966.91
2024-05-09T04:32:10.654Z,86966.13
2024-05-09T04:32:52.536Z,86965.78
2024-05-09T04:33:32.597Z,86964.34
2024-05-09T04:34:12.939Z,86967.09
2024-05-09T04:34:53.037Z,86968.31
2024-05-09T04:35:32.832Z,86966.66
2024-05-09T04:36:12.791Z,86971.22
2024-05-09T04:36:52.521Z,86968.47
2024-05-09T04:37:32.535Z,86971.34
2024-05-09T04:38:13.290Z,86972.38
2024-05-09T04:38:53.358Z,86977.44
2024-05-09T04:39:33.098Z,86970.16
2024-05-09T04:40:24.086Z,86970.63
2024-05-09T04:41:11.162Z,86972.78
2024-05-09T04:41:50.959Z,86970.78
2024-05-09T04:42:30.711Z,86976.06
2024-05-09T04:43:21.475Z,86982.03
2024-05-09T04:44:01.500Z,86983.03
2024-05-09T04:44:41.272Z,86981.19
2024-05-09T04:45:21.156Z,86973.88
2024-05-09T04:46:01.257Z,86977.97
2024-05-09T04:46:41.133Z,86981.72
2024-05-09T04:47:21.057Z,86980.06
2024-05-09T04:48:01.410Z,86987.50
2024-05-09T04:48:42.245Z,86988.84
2024-05-09T04:49:22.253Z,86984.06
2024-05-09T04:50:02.574Z,86992.06
2024-05-09T04:50:42.736Z,86990.03
2024-05-09T04:51:23.048Z,86989.81
2024-05-09T04:52:03.071Z,86981.03
2024-05-09T04:52:42.856Z,86994.09
2024-05-09T04:53:22.955Z,86990.34
2024-05-09T04:54:03.246Z,86986.38
2024-05-09T04:54:43.006Z,86988.47
2024-05-09T04:55:22.916Z,86989.84
2024-05-09T04:56:02.624Z,86992.41
2024-05-09T04:56:42.859Z,86988.03
2024-05-09T04:57:22.657Z,86997.13
2024-05-09T04:58:02.654Z,86995.31
2024-05-09T04:58:42.394Z,86986.41
2024-05-09T04:59:22.994Z,86998.88
2024-05-09T05:00:07.218Z,86992.78
2024-05-09T05:00:49.659Z,86998.91
2024-05-09T05:01:29.585Z,86994.56
2024-05-09T05:02:09.702Z,86990.72
2024-05-09T05:02:49.740Z,86999.97
2024-05-09T05:03:29.744Z,86999.84
2024-05-09T05:04:09.773Z,86996.50
2024-05-09T05:04:50.090Z,86995.81
2024-05-09T05:05:29.992Z,87005.34
2024-05-09T05:06:10.427Z,87004.94
2024-05-09T05:06:50.298Z,87000.16
2024-05-09T05:08:01.797Z,87000.00
2024-05-09T05:08:41.648Z,87005.78
2024-05-09T05:09:21.629Z,87006.47
2024-05-09T05:10:01.739Z,87004.16
2024-05-09T05:10:41.959Z,87002.53
2024-05-09T05:11:21.833Z,87002.81
2024-05-09T05:12:03.825Z,87004.47
2024-05-09T05:13:02.651Z,87002.03
2024-05-09T05:13:44.503Z,87011.22
2024-05-09T05:14:24.549Z,87011.94
2024-05-09T05:15:04.307Z,87012.72
2024-05-09T05:16:20.629Z,87006.72
2024-05-09T05:17:18.803Z,87009.22
2024-05-09T05:17:58.995Z,87012.56
2024-05-09T05:18:39.064Z,87006.63
2024-05-09T05:19:18.992Z,87010.47
2024-05-09T05:19:59.624Z,87008.19
2024-05-09T05:20:40.326Z,87009.66
2024-05-09T05:21:20.913Z,87016.25
2024-05-09T05:22:01.000Z,87012.47
2024-05-09T05:22:44.115Z,87016.28
2024-05-09T05:23:25.042Z,87013.44
2024-05-09T05:24:07.130Z,87018.13
2024-05-09T05:24:47.012Z,87018.19
2024-05-09T05:25:26.898Z,87020.50
2024-05-09T05:26:07.284Z,87020.81
2024-05-09T05:26:47.578Z,87019.34
2024-05-09T05:27:27.533Z,87013.44
2024-05-09T05:28:07.693Z,87017.97
2024-05-09T05:28:48.288Z,87015.22
2024-05-09T05:29:28.230Z,87019.50
2024-05-09T05:30:14.656Z,87016.81
2024-05-09T05:30:57.829Z,87017.72
2024-05-09T05:31:37.599Z,87019.50
2024-05-09T05:32:18.157Z,87018.81
2024-05-09T05:32:58.263Z,87018.91
2024-05-09T05:33:38.453Z,87028.91
2024-05-09T05:34:18.322Z,87030.41
2024-05-09T05:34:58.506Z,87023.44
2024-05-09T05:35:38.752Z,87022.44
2024-05-09T05:36:18.475Z,87024.53
2024-05-09T05:36:58.482Z,87027.13
2024-05-09T05:37:39.244Z,87025.91
2024-05-09T05:38:21.227Z,87030.53
2024-05-09T05:39:02.414Z,87025.44
2024-05-09T05:39:42.592Z,87030.66
2024-05-09T05:40:32.079Z,87028.22
2024-05-09T05:41:15.732Z,87023.13
2024-05-09T05:41:55.628Z,87028.94
2024-05-09T05:42:35.423Z,87030.94
2024-05-09T05:43:20.123Z,87029.75
2024-05-09T05:44:00.077Z,87036.44
2024-05-09T05:44:40.006Z,87038.34
2024-05-09T05:45:20.068Z,87036.84
2024-05-09T05:46:00.060Z,87034.75
2024-05-09T05:46:39.839Z,87034.25
2024-05-09T05:47:19.846Z,87040.13
2024-05-09T05:48:00.956Z,87038.13
2024-05-09T05:48:41.639Z,87037.34
2024-05-09T05:49:21.752Z,87041.44
2024-05-09T05:50:01.863Z,87040.63
2024-05-09T05:50:41.961Z,87044.84
2024-05-09T05:51:22.128Z,87042.66
2024-05-09T05:52:01.969Z,87048.84
2024-05-09T05:52:42.915Z,87053.66
2024-05-09T05:53:22.970Z,87045.75
2024-05-09T05:54:03.004Z,87048.84
2024-05-09T05:54:42.810Z,87048.06
2024-05-09T05:55:22.816Z,87045.63
2024-05-09T05:56:02.647Z,87047.56
2024-05-09T05:56:43.015Z,87044.06
2024-05-09T05:57:22.810Z,87053.56
2024-05-09T05:58:03.871Z,87042.66
2024-05-09T05:58:44.213Z,87040.16
2024-05-09T05:59:25.010Z,87044.34
2024-05-09T06:00:09.382Z,87048.03
2024-05-09T06:00:54.545Z,87043.63
2024-05-09T06:01:34.717Z,87047.22
2024-05-09T06:02:14.977Z,87045.13
2024-05-09T06:02:54.954Z,87045.22
2024-05-09T06:03:34.971Z,87048.13
2024-05-09T06:04:14.828Z,87046.91
2024-05-09T06:04:55.136Z,87053.94
2024-05-09T06:05:36.187Z,87049.31
2024-05-09T06:06:16.187Z,87049.69
2024-05-09T06:06:55.958Z,87039.19
2024-05-09T06:07:35.931Z,87042.78
2024-05-09T06:08:15.953Z,87044.97
2024-05-09T06:08:56.276Z,87049.06
2024-05-09T06:09:36.490Z,87053.28
2024-05-09T06:10:21.498Z,87050.75
2024-05-09T06:11:05.710Z,87045.03
2024-05-09T06:11:45.714Z,87049.84
2024-05-09T06:12:25.741Z,87055.44
2024-05-09T06:13:06.469Z,87055.09
2024-05-09T06:13:46.323Z,87053.00
2024-05-09T06:14:26.680Z,87052.13
2024-05-09T06:15:07.359Z,87054.03
2024-05-09T06:15:47.523Z,87060.00
2024-05-09T06:16:27.288Z,87061.31
2024-05-09T06:17:07.133Z,87052.50
2024-05-09T06:17:47.078Z,87058.97
2024-05-09T06:18:27.578Z,87063.16
2024-05-09T06:19:07.727Z,87064.03
2024-05-09T06:19:47.820Z,87051.25
2024-05-09T06:20:35.440Z,87060.34
2024-05-09T06:21:21.169Z,87061.97
2024-05-09T06:22:01.106Z,87055.13
2024-05-09T06:22:40.957Z,87071.25
2024-05-09T06:23:21.759Z,87061.81
2024-05-09T06:24:03.799Z,87062.13
2024-05-09T06:24:45.109Z,87068.16
2024-05-09T06:25:24.890Z,87064.22
2024-05-09T06:26:06.597Z,87061.78
2024-05-09T06:26:47.450Z,87072.09
2024-05-09T06:27:27.356Z,87069.03
2024-05-09T06:28:07.497Z,87066.41
2024-05-09T06:28:47.544Z,87071.59
2024-05-09T06:29:27.630Z,87068.06
2024-05-09T06:30:09.985Z,87067.72
2024-05-09T06:30:51.898Z,87068.78
2024-05-09T06:31:31.812Z,87065.13
2024-05-09T06:32:11.918Z,87072.53
2024-05-09T06:32:51.966Z,87066.59
2024-05-09T06:33:31.962Z,87072.34
2024-05-09T06:34:12.397Z,87072.47
2024-05-09T06:34:52.860Z,87066.50
2024-05-09T06:35:32.825Z,87068.50
2024-05-09T06:36:12.932Z,87072.72
2024-05-09T06:36:52.686Z,87065.81
2024-05-09T06:37:32.688Z,87077.59
2024-05-09T06:38:12.725Z,87074.91
2024-05-09T06:38:52.607Z,87078.31
2024-05-09T06:39:35.408Z,87079.28
2024-05-09T06:40:21.179Z,87074.47
2024-05-09T06:41:05.382Z,87074.69
2024-05-09T06:41:45.172Z,87069.88
2024-05-09T06:42:24.985Z,87071.97
2024-05-09T06:43:05.152Z,87065.03
2024-05-09T06:43:45.141Z,87067.84
2024-05-09T06:44:25.002Z,87069.16
2024-05-09T06:45:04.970Z,87069.59
2024-05-09T06:45:45.132Z,87066.13
2024-05-09T06:46:26.326Z,87072.84
2024-05-09T06:47:06.345Z,87070.13
2024-05-09T06:47:46.302Z,87068.22
2024-05-09T06:48:26.827Z,87068.44
2024-05-09T06:49:09.323Z,87070.19
2024-05-09T06:49:49.345Z,87071.78
2024-05-09T06:50:36.825Z,87076.69
2024-05-09T06:51:18.361Z,87075.75
2024-05-09T06:51:58.124Z,87077.56
2024-05-09T06:52:37.931Z,87077.84
2024-05-09T06:53:18.519Z,87071.56
2024-05-09T06:53:58.741Z,87068.94
2024-05-09T06:54:38.882Z,87071.56
2024-05-09T06:55:18.600Z,87076.19
2024-05-09T06:55:58.363Z,87071.63
2024-05-09T06:57:12.366Z,87066.47
2024-05-09T06:57:52.275Z,87070.84
2024-05-09T06:58:32.038Z,87072.22
2024-05-09T06:59:12.079Z,87074.84
2024-05-09T06:59:51.804Z,87069.44
2024-05-09T07:00:38.541Z,87073.28
2024-05-09T07:01:21.702Z,87069.28
2024-05-09T07:02:01.742Z,87074.84
2024-05-09T07:02:41.641Z,87073.91
2024-05-09T07:03:21.705Z,87075.56
2024-05-09T07:04:01.764Z,87074.31
2024-05-09T07:04:41.781Z,87066.19
2024-05-09T07:05:21.593Z,87073.72
2024-05-09T07:06:01.692Z,87070.69
2024-05-09T07:06:41.490Z,87076.03
2024-05-09T07:07:21.539Z,87078.94
2024-05-09T07:08:16.878Z,87072.16
2024-05-09T07:08:56.791Z,87071.16
2024-05-09T07:09:36.968Z,87071.31
2024-05-09T07:10:22.156Z,87075.81
2024-05-09T07:11:08.568Z,87071.94
2024-05-09T07:11:48.554Z,87075.81
2024-05-09T07:12:28.488Z,87068.75
2024-05-09T07:13:12.552Z,87076.91
2024-05-09T07:13:52.963Z,87079.69
2024-05-09T07:14:33.977Z,87078.91
2024-05-09T07:15:14.565Z,87071.63
2024-05-09T07:15:54.699Z,87067.09
2024-05-09T07:16:34.742Z,87076.09
2024-05-09T07:17:15.201Z,87073.47
2024-05-09T07:17:55.233Z,87073.56
2024-05-09T07:18:37.252Z,87073.56
2024-05-09T07:19:17.435Z,87067.94
2024-05-09T07:19:57.361Z,87073.03
2024-05-09T07:20:37.183Z,87076.31
2024-05-09T07:21:17.446Z,87073.88
2024-05-09T07:21:57.368Z,87077.66
2024-05-09T07:22:37.098Z,87074.66
2024-05-09T07:23:17.243Z,87080.31
2024-05-09T07:23:58.448Z,87077.75
2024-05-09T07:24:39.149Z,87077.19
2024-05-09T07:25:18.943Z,87073.75
2024-05-09T07:25:59.121Z,87081.28
2024-05-09T07:26:39.393Z,87080.59
2024-05-09T07:27:19.326Z,87077.19
2024-05-09T07:27:59.185Z,87080.47
2024-05-09T07:28:39.007Z,87082.97
2024-05-09T07:29:18.967Z,87083.19
2024-05-09T07:29:58.946Z,87078.31
2024-05-09T07:30:38.732Z,87077.97
2024-05-09T07:31:18.460Z,87079.66
2024-05-09T07:31:58.684Z,87074.22
2024-05-09T07:32:38.656Z,87077.81
2024-05-09T07:33:23.567Z,87077.13
2024-05-09T07:34:04.280Z,87083.47
2024-05-09T07:34:44.203Z,87076.84
2024-05-09T07:35:24.207Z,87077.28
2024-05-09T07:36:03.980Z,87082.16
2024-05-09T07:36:44.185Z,87077.53
2024-05-09T07:37:24.621Z,87081.53
2024-05-09T07:38:04.916Z,87074.25
2024-05-09T07:38:44.702Z,87081.50
2024-05-09T07:39:25.523Z,87078.19
2024-05-09T07:40:07.636Z,87076.41
2024-05-09T07:40:47.685Z,87077.25
2024-05-09T07:41:27.673Z,87074.59
2024-05-09T07:42:07.711Z,87069.44
2024-05-09T07:42:47.752Z,87066.34
2024-05-09T07:43:28.968Z,87062.66
2024-05-09T07:44:08.792Z,87071.34
2024-05-09T07:44:48.608Z,87068.63
2024-05-09T07:45:45.068Z,87070.25
2024-05-09T07:47:36.781Z,87071.06
2024-05-09T07:49:44.757Z,87065.16
2024-05-09T07:50:55.698Z,87067.03
2024-05-09T07:53:37.179Z,87071.19
2024-05-09T07:54:12.313Z,87064.81
2024-05-09T07:54:52.308Z,87065.78
2024-05-09T07:55:32.372Z,87066.78
2024-05-09T07:56:12.758Z,87064.81
2024-05-09T07:56:53.455Z,87060.06
2024-05-09T07:57:33.399Z,87064.00
2024-05-09T07:58:13.158Z,87062.13
2024-05-09T07:58:54.774Z,87063.44
2024-05-09T07:59:37.912Z,87067.69
2024-05-09T08:00:23.689Z,87062.66
2024-05-09T08:01:09.564Z,87064.38
2024-05-09T08:01:49.864Z,87069.03
2024-05-09T08:02:30.799Z,87065.03
2024-05-09T08:03:12.232Z,87066.28
2024-05-09T08:03:52.288Z,87058.44
2024-05-09T08:04:32.397Z,87066.50
2024-05-09T08:05:12.741Z,87063.09
2024-05-09T08:05:53.206Z,87067.25
2024-05-09T08:06:33.312Z,87062.53
2024-05-09T08:07:13.094Z,87056.72